Time;durP1;ratioP1;P1;durP2;ratioP2;P2;SDS_P1;SDS_P2;PMS_P1;PMS_P2;Temp;Humidity;BMP_temperature;BMP_pressure;BME280_temperature;BME280_humidity;BME280_pressure;Samples;Min_cycle;Max_cycle;Signal;HPM_P1;HPM_P2
2023/02/12 00:02:15;;;;;;;21.55;10.45;;;;;;;5.63;100.00;103966.66;5114153;28;20027;-75
2023/02/12 00:04:40;;;;;;;26.02;10.80;;;;;;;5.62;100.00;103959.63;5114191;28;20054;-74
2023/02/12 00:07:05;;;;;;;17.77;10.75;;;;;;;5.61;100.00;103957.91;5114546;28;20031;-75
2023/02/12 00:09:31;;;;;;;20.65;11.00;;;;;;;5.58;100.00;103952.69;5114108;28;20046;-74
2023/02/12 00:11:56;;;;;;;18.48;10.55;;;;;;;5.56;100.00;103954.47;5113938;28;20031;-75
2023/02/12 00:14:22;;;;;;;23.27;11.10;;;;;;;5.57;100.00;103960.63;5112910;28;20475;-74
2023/02/12 00:16:47;;;;;;;22.45;10.57;;;;;;;5.56;100.00;103958.91;5113621;28;20039;-75
2023/02/12 00:19:12;;;;;;;17.80;10.25;;;;;;;5.57;100.00;103957.97;5114030;28;20061;-74
2023/02/12 00:21:38;;;;;;;21.80;10.50;;;;;;;5.54;100.00;103956.28;5114233;28;20047;-74
2023/02/12 00:24:03;;;;;;;19.27;10.32;;;;;;;5.51;100.00;103959.00;5112722;28;20032;-75
2023/02/12 00:26:28;;;;;;;18.02;10.02;;;;;;;5.50;100.00;103964.31;5113814;28;20035;-75
2023/02/12 00:28:54;;;;;;;17.58;10.20;;;;;;;5.47;100.00;103963.44;5114096;28;20055;-75
2023/02/12 00:31:25;;;;;;;20.67;10.00;;;;;;;5.45;100.00;103962.63;5113896;28;20513;-75
2023/02/12 00:33:51;;;;;;;19.77;9.50;;;;;;;5.43;100.00;103969.72;5113670;28;20020;-75
2023/02/12 00:36:19;;;;;;;17.85;10.15;;;;;;;5.41;100.00;103965.34;5114019;28;20381;-74
2023/02/12 00:38:46;;;;;;;16.83;9.38;;;;;;;5.40;100.00;103964.44;5113476;28;20058;-74
2023/02/12 00:41:11;;;;;;;18.60;9.93;;;;;;;5.37;100.00;103961.88;5113303;28;20496;-75
2023/02/12 00:43:37;;;;;;;20.27;9.95;;;;;;;5.36;100.00;103968.06;5113699;28;20031;-75
2023/02/12 00:46:04;;;;;;;15.77;9.80;;;;;;;5.35;100.00;103965.47;5112285;28;20028;-75
2023/02/12 00:48:30;;;;;;;15.02;9.38;;;;;;;5.31;100.00;103962.00;5113652;28;20472;-75
2023/02/12 00:50:55;;;;;;;19.33;10.52;;;;;;;5.29;100.00;103958.53;5113699;28;20050;-75
2023/02/12 00:53:20;;;;;;;16.45;9.18;;;;;;;5.27;100.00;103963.81;5113669;28;20407;-75
2023/02/12 00:55:46;;;;;;;19.85;9.98;;;;;;;5.24;100.00;103953.31;5112770;28;20239;-74
2023/02/12 00:58:11;;;;;;;17.95;9.88;;;;;;;5.22;100.00;103963.03;5115205;28;20242;-74
2023/02/12 01:00:37;;;;;;;15.30;9.95;;;;;;;5.21;100.00;103963.06;5118267;28;20032;-74
2023/02/12 01:03:04;;;;;;;19.48;9.65;;;;;;;5.18;100.00;103958.72;5117618;28;20036;-75
2023/02/12 01:05:29;;;;;;;17.35;10.23;;;;;;;5.19;100.00;103959.56;5118038;28;20159;-74
2023/02/12 01:07:55;;;;;;;16.05;10.20;;;;;;;5.15;100.00;103950.84;5117426;28;20091;-75
2023/02/12 01:10:21;;;;;;;16.00;9.63;;;;;;;5.16;100.00;103949.94;5117326;28;20023;-74
2023/02/12 01:12:47;;;;;;;15.77;9.65;;;;;;;5.15;100.00;103956.13;5117449;28;20070;-74
2023/02/12 01:15:13;;;;;;;20.45;11.18;;;;;;;5.11;100.00;103946.53;5117574;28;20087;-75
2023/02/12 01:17:39;;;;;;;14.77;9.75;;;;;;;5.11;100.00;103963.22;5117705;28;20051;-74
2023/02/12 01:20:07;;;;;;;18.33;10.25;;;;;;;5.08;100.00;103958.00;5117257;28;20118;-74
2023/02/12 01:22:36;;;;;;;16.60;10.43;;;;;;;5.06;100.00;103954.53;5116416;28;20057;-75
2023/02/12 01:25:03;;;;;;;19.33;9.85;;;;;;;5.06;100.00;103953.63;5117137;28;20110;-75
2023/02/12 01:27:28;;;;;;;17.13;10.65;;;;;;;5.06;100.00;103953.63;5117669;28;20039;-75
2023/02/12 01:29:54;;;;;;;27.38;9.68;;;;;;;5.07;100.00;103955.38;5117546;28;20120;-74
2023/02/12 01:32:19;;;;;;;13.25;9.52;;;;;;;5.06;100.00;103953.63;5116557;28;20027;-74
2023/02/12 01:34:44;;;;;;;18.30;10.38;;;;;;;5.06;100.00;103948.34;5117025;28;20031;-76
2023/02/12 01:37:10;;;;;;;14.10;9.27;;;;;;;5.05;100.00;103944.00;5117221;28;20031;-74
2023/02/12 01:39:35;;;;;;;20.13;10.45;;;;;;;5.04;100.00;103951.03;5117096;28;20024;-74
2023/02/12 01:42:01;;;;;;;19.08;9.93;;;;;;;5.03;100.00;103946.66;5116784;28;20521;-74
2023/02/12 01:44:31;;;;;;;18.92;10.35;;;;;;;5.04;100.00;103950.16;5117093;28;20042;-74
2023/02/12 01:47:00;;;;;;;18.87;10.03;;;;;;;5.03;100.00;103954.59;5116795;28;20475;-74
2023/02/12 01:49:39;;;;;;;16.23;9.70;;;;;;;5.04;100.00;103951.03;5115386;28;20067;-74
2023/02/12 01:52:22;;;;;;;16.42;9.60;;;;;;;5.04;100.00;103947.53;5116544;28;20133;-74
2023/02/12 01:54:51;;;;;;;13.90;8.88;;;;;;;5.07;100.00;103952.75;5116641;28;20073;-75
2023/02/12 01:57:17;;;;;;;15.95;9.18;;;;;;;5.06;100.00;103951.00;5117475;28;20032;-74
2023/02/12 01:59:47;;;;;;;15.15;9.15;;;;;;;5.07;100.00;103947.47;5116445;28;20027;-74
2023/02/12 02:02:13;;;;;;;11.98;7.50;;;;;;;5.07;100.00;103955.38;5116409;28;20187;-74
2023/02/12 02:05:00;;;;;;;13.40;6.63;;;;;;;5.07;100.00;103948.31;5116408;28;20024;-74
2023/02/12 02:07:25;;;;;;;12.77;5.03;;;;;;;5.08;100.00;103946.59;5114576;28;20361;-74
2023/02/12 02:09:51;;;;;;;8.02;4.68;;;;;;;5.12;100.00;103953.56;5116063;28;20034;-74
2023/02/12 02:15:03;;;;;;;5.82;3.60;;;;;;;5.23;100.00;103956.84;5115446;28;20093;-74
2023/02/12 02:17:50;;;;;;;5.03;2.97;;;;;;;5.32;100.00;103962.88;5116058;28;20051;-74
2023/02/12 02:20:42;;;;;;;6.75;2.88;;;;;;;5.37;100.00;103958.38;5115994;28;20125;-74
2023/02/12 02:23:29;;;;;;;3.78;2.20;;;;;;;5.43;100.00;103952.97;5116054;28;20051;-74
2023/02/12 02:26:06;;;;;;;5.10;2.55;;;;;;;5.46;100.00;103959.09;5116374;28;20054;-74
2023/02/12 02:29:03;;;;;;;3.10;2.25;;;;;;;5.49;100.00;103952.84;5116562;28;20153;-74
2023/02/12 02:31:39;;;;;;;3.45;2.50;;;;;;;5.46;100.00;103956.44;5116383;28;20023;-74
2023/02/12 02:34:09;;;;;;;3.75;3.08;;;;;;;5.44;100.00;103952.94;5115806;28;20031;-74
2023/02/12 02:36:53;;;;;;;10.23;5.93;;;;;;;5.39;100.00;103952.16;5116175;28;20023;-74
2023/02/12 02:39:28;;;;;;;11.30;6.18;;;;;;;5.36;100.00;103956.63;5115623;28;20023;-75
2023/02/12 02:42:05;;;;;;;9.77;6.38;;;;;;;5.30;100.00;103958.50;5115745;28;20046;-75
2023/02/12 02:44:50;;;;;;;9.95;6.88;;;;;;;5.25;100.00;103955.03;5116190;28;20161;-75
2023/02/12 02:47:19;;;;;;;12.57;7.40;;;;;;;5.19;100.00;103955.16;5115783;28;20130;-75
2023/02/12 02:49:54;;;;;;;11.65;7.47;;;;;;;5.16;100.00;103955.22;5115122;28;20359;-75
2023/02/12 02:52:36;;;;;;;13.13;7.30;;;;;;;5.12;100.00;103945.63;5116448;28;20376;-75
2023/02/12 02:55:06;;;;;;;13.32;8.00;;;;;;;5.10;100.00;103944.78;5115965;28;20032;-76
2023/02/12 02:57:44;;;;;;;13.65;8.45;;;;;;;5.05;100.00;103944.00;5116336;28;20130;-73
2023/02/12 03:00:15;;;;;;;15.57;7.80;;;;;;;5.03;100.00;103948.41;5115986;28;20061;-74
2023/02/12 03:02:44;;;;;;;;;;;;;;;5.01;100.00;103947.59;5116334;28;20035;-74
2023/02/12 03:05:23;;;;;;;11.25;7.47;;;;;;;4.99;100.00;103947.59;5115447;28;20025;-74
2023/02/12 03:07:56;;;;;;;12.63;7.30;;;;;;;4.97;100.00;103943.25;5115635;28;20023;-74
2023/02/12 03:10:28;;;;;;;10.15;6.25;;;;;;;4.97;100.00;103935.31;5114823;28;20080;-74
2023/02/12 03:13:04;;;;;;;8.93;5.80;;;;;;;4.96;100.00;103934.47;5115146;28;20059;-74
2023/02/12 03:15:59;;;;;;;8.65;5.55;;;;;;;4.99;100.00;103942.31;5114989;28;20024;-74
2023/02/12 03:18:30;;;;;;;7.25;5.07;;;;;;;5.02;100.00;103937.00;5115459;28;20050;-74
2023/02/12 03:21:10;;;;;;;7.22;3.70;;;;;;;5.06;100.00;103941.31;5114291;28;20053;-73
2023/02/12 03:23:51;;;;;;;6.00;3.70;;;;;;;5.11;100.00;103941.25;5114938;28;20024;-73
2023/02/12 03:26:24;;;;;;;10.48;3.53;;;;;;;5.15;100.00;103947.31;5114345;28;20024;-72
2023/02/12 03:28:50;;;;;;;6.68;3.65;;;;;;;5.16;100.00;103942.03;5113817;28;20368;-74
2023/02/12 03:31:24;;;;;;;6.10;3.72;;;;;;;5.18;100.00;103939.34;5114841;28;20032;-74
2023/02/12 03:34:01;;;;;;;6.97;3.20;;;;;;;5.18;100.00;103931.44;5114919;28;20035;-73
2023/02/12 03:36:41;;;;;;;5.68;2.80;;;;;;;5.20;100.00;103927.00;5114684;28;20027;-73
2023/02/12 03:39:33;;;;;;;4.50;3.20;;;;;;;5.21;100.00;103932.25;5115362;28;20024;-73
2023/02/12 03:42:17;;;;;;;7.20;2.90;;;;;;;5.23;100.00;103932.22;5121773;28;20039;-73
2023/02/12 03:44:46;;;;;;;6.15;2.95;;;;;;;5.24;100.00;103932.19;5116685;28;20032;-75
2023/02/12 03:47:47;;;;;;;3.55;2.63;;;;;;;5.26;100.00;103935.66;5115337;28;20027;-75
2023/02/12 03:50:20;;;;;;;6.97;3.00;;;;;;;5.26;100.00;103937.47;5103662;28;20447;-73
2023/02/12 03:52:48;;;;;;;6.28;2.65;;;;;;;5.27;100.00;103941.84;5114572;28;20088;-72
2023/02/12 03:55:14;;;;;;;4.10;2.58;;;;;;;5.26;100.00;103946.22;5114343;28;20055;-75
2023/02/12 03:57:48;;;;;;;3.95;2.58;;;;;;;5.26;100.00;103942.75;5114937;28;20172;-74
2023/02/12 04:00:19;;;;;;;6.70;2.58;;;;;;;5.28;100.00;103943.56;5113955;28;20047;-75
2023/02/12 04:02:45;;;;;;;4.35;2.72;;;;;;;5.29;100.00;103947.97;5114302;28;20027;-73
2023/02/12 04:05:23;;;;;;;2.88;2.10;;;;;;;5.32;100.00;103949.69;5112964;28;20110;-73
2023/02/12 04:07:49;;;;;;;5.18;2.28;;;;;;;5.32;100.00;103945.25;5114544;28;20027;-73
2023/02/12 04:10:15;;;;;;;3.50;2.15;;;;;;;5.36;100.00;103952.22;5113658;28;20035;-73
2023/02/12 04:13:09;;;;;;;4.72;2.30;;;;;;;5.39;100.00;103948.63;5113794;28;20035;-73
2023/02/12 04:16:16;;;;;;;5.60;2.30;;;;;;;5.40;100.00;103953.88;5113658;28;20054;-74
2023/02/12 04:18:44;;;;;;;4.20;2.30;;;;;;;5.39;100.00;103957.44;5114224;28;20046;-73
2023/02/12 04:21:46;;;;;;;6.07;2.28;;;;;;;5.42;100.00;103961.78;5113679;28;20088;-73
2023/02/12 04:24:24;;;;;;;2.00;1.80;;;;;;;5.43;100.00;103968.81;5113609;28;20096;-73
2023/02/12 04:26:58;;;;;;;2.65;1.90;;;;;;;5.44;100.00;103965.28;5114795;28;20027;-73
2023/02/12 04:29:26;;;;;;;3.50;2.05;;;;;;;5.44;100.00;103970.56;5114090;28;20046;-73
2023/02/12 04:32:03;;;;;;;5.47;2.20;;;;;;;5.43;100.00;103968.81;5113527;28;20455;-74
2023/02/12 04:34:43;;;;;;;6.30;2.20;;;;;;;5.40;100.00;103967.09;5113502;28;20023;-74
2023/02/12 04:37:16;;;;;;;5.82;1.90;;;;;;;5.39;100.00;103964.47;5114452;28;20031;-74
2023/02/12 04:39:44;;;;;;;4.70;1.88;;;;;;;5.39;100.00;103975.03;5113661;28;20024;-74
2023/02/12 04:42:09;;;;;;;3.58;2.03;;;;;;;5.42;100.00;103972.34;5114535;28;20456;-73
2023/02/12 04:44:38;;;;;;;4.85;2.00;;;;;;;5.47;100.00;103971.38;5113912;28;20028;-74
2023/02/12 04:47:04;;;;;;;2.53;2.08;;;;;;;5.61;100.00;103973.75;5113318;28;20475;-73
2023/02/12 04:49:29;;;;;;;3.10;2.28;;;;;;;5.74;100.00;103978.78;5113300;28;20059;-74
2023/02/12 04:51:55;;;;;;;3.67;2.10;;;;;;;5.78;100.00;103976.06;5113835;28;20032;-74
2023/02/12 04:54:21;;;;;;;3.03;2.10;;;;;;;5.78;100.00;103976.06;5113799;28;20023;-74
2023/02/12 04:56:47;;;;;;;5.05;2.17;;;;;;;5.78;100.00;103983.13;5113518;28;20455;-74
2023/02/12 04:59:13;;;;;;;6.78;2.67;;;;;;;5.77;100.00;103976.09;5113332;28;20118;-73
2023/02/12 05:01:39;;;;;;;5.53;2.53;;;;;;;5.75;100.00;103976.13;5113248;28;20531;-73
2023/02/12 05:04:05;;;;;;;3.35;2.28;;;;;;;5.72;100.00;103976.19;5113547;28;20032;-73
2023/02/12 05:06:33;;;;;;;5.28;2.22;;;;;;;5.69;100.00;103983.28;5113442;28;20053;-73
2023/02/12 05:08:58;;;;;;;3.75;2.30;;;;;;;5.64;100.00;103976.34;5113570;28;20048;-74
2023/02/12 05:11:24;;;;;;;3.05;2.00;;;;;;;5.60;100.00;103965.88;5113035;28;20159;-75
2023/02/12 05:13:51;;;;;;;2.95;2.20;;;;;;;5.56;100.00;103972.09;5113199;28;20039;-74
2023/02/12 05:16:17;;;;;;;4.93;2.10;;;;;;;5.49;100.00;103968.69;5113320;28;20054;-73
2023/02/12 05:18:43;;;;;;;3.88;2.55;;;;;;;5.45;100.00;103967.91;5113604;28;20523;-74
2023/02/12 05:21:09;;;;;;;4.57;2.20;;;;;;;5.41;100.00;103967.97;5113084;28;20043;-73
2023/02/12 05:23:36;;;;;;;4.40;2.10;;;;;;;5.37;100.00;103968.94;5112972;28;20032;-73
2023/02/12 05:26:05;;;;;;;6.93;2.63;;;;;;;5.35;100.00;103968.09;5113522;28;20455;-73
2023/02/12 05:28:31;;;;;;;5.72;2.35;;;;;;;5.34;100.00;103969.84;5112469;28;20023;-74
2023/02/12 05:31:01;;;;;;;4.68;2.42;;;;;;;5.36;100.00;103972.47;5113206;28;20036;-73
2023/02/12 05:33:27;;;;;;;4.97;2.53;;;;;;;5.36;100.00;103968.06;5113779;28;20122;-74
2023/02/12 05:35:52;;;;;;;4.07;2.65;;;;;;;5.35;100.00;103976.03;5112054;28;20051;-73
2023/02/12 05:38:18;;;;;;;4.82;2.53;;;;;;;5.31;100.00;103975.19;5113220;28;20094;-73
2023/02/12 05:40:43;;;;;;;5.68;2.50;;;;;;;5.30;100.00;103981.41;5113372;28;20035;-73
2023/02/12 05:43:09;;;;;;;2.78;2.22;;;;;;;5.27;100.00;103976.16;5113992;28;20063;-73
2023/02/12 05:45:36;;;;;;;4.45;2.75;;;;;;;5.27;100.00;103979.66;5116999;28;20474;-73
2023/02/12 05:48:02;;;;;;;4.07;2.45;;;;;;;5.27;100.00;103981.44;5115597;28;20051;-73
2023/02/12 05:50:28;;;;;;;4.55;3.15;;;;;;;5.25;100.00;103980.59;5098769;28;20028;-73
2023/02/12 05:52:53;;;;;;;4.03;2.40;;;;;;;5.27;100.00;103984.94;5116331;28;20452;-73
2023/02/12 05:55:19;;;;;;;4.82;2.75;;;;;;;5.26;100.00;103977.91;5116406;28;20035;-73
2023/02/12 05:57:44;;;;;;;3.30;2.60;;;;;;;5.26;100.00;103974.41;5116285;28;20039;-73
2023/02/12 06:00:10;;;;;;;3.88;2.63;;;;;;;5.29;100.00;103977.00;5116620;28;20470;-73
2023/02/12 06:02:36;;;;;;;2.75;2.40;;;;;;;5.35;100.00;103986.59;5115066;28;20111;-73
2023/02/12 06:05:01;;;;;;;3.30;2.60;;;;;;;5.36;100.00;103983.03;5117020;28;20050;-73
2023/02/12 06:07:27;;;;;;;2.72;2.28;;;;;;;5.37;100.00;103987.41;5116193;28;20028;-74
2023/02/12 06:09:53;;;;;;;2.60;2.30;;;;;;;5.35;100.00;103978.66;5116043;28;20032;-74
2023/02/12 06:12:19;;;;;;;3.20;2.20;;;;;;;5.33;100.00;103975.16;5116835;28;20072;-74
2023/02/12 06:14:45;;;;;;;6.47;2.53;;;;;;;5.30;100.00;103979.63;5115942;28;20029;-74
2023/02/12 06:17:10;;;;;;;5.90;2.50;;;;;;;5.28;100.00;103980.53;5116399;28;20468;-74
2023/02/12 06:19:36;;;;;;;5.03;2.45;;;;;;;5.26;100.00;103975.28;5116116;28;20036;-74
2023/02/12 06:22:01;;;;;;;4.43;2.53;;;;;;;5.25;100.00;103980.59;5116151;28;20532;-74
2023/02/12 06:24:27;;;;;;;5.43;2.40;;;;;;;5.23;100.00;103974.47;5116098;28;20027;-74
2023/02/12 06:26:52;;;;;;;2.17;1.98;;;;;;;5.21;100.00;103970.97;5115985;28;20036;-74
2023/02/12 06:29:19;;;;;;;5.38;2.47;;;;;;;5.19;100.00;103975.41;5116060;28;20028;-74
2023/02/12 06:31:44;;;;;;;4.13;2.30;;;;;;;5.17;100.00;103971.94;5115544;28;20098;-74
2023/02/12 06:34:11;;;;;;;3.50;2.10;;;;;;;5.16;100.00;103971.06;5114944;28;20124;-74
2023/02/12 06:36:40;;;;;;;3.28;2.58;;;;;;;5.16;100.00;103964.91;5115508;28;20076;-74
2023/02/12 06:39:06;;;;;;;2.70;2.10;;;;;;;5.16;100.00;103976.34;5115944;28;20425;-74
2023/02/12 06:41:32;;;;;;;3.30;2.28;;;;;;;5.15;100.00;103979.00;5115961;28;20035;-73
2023/02/12 06:43:57;;;;;;;5.07;2.40;;;;;;;5.14;100.00;103978.16;5115778;28;20058;-74
2023/02/12 06:46:23;;;;;;;3.03;2.40;;;;;;;5.11;100.00;103979.06;5115731;28;20031;-74
2023/02/12 06:48:53;;;;;;;2.63;2.40;;;;;;;5.10;100.00;103985.22;5115328;28;20035;-74
2023/02/12 06:51:20;;;;;;;4.82;2.30;;;;;;;5.11;100.00;103978.19;5115568;28;20043;-73
2023/02/12 06:53:46;;;;;;;4.28;2.40;;;;;;;5.12;100.00;103985.22;5114137;28;20027;-74
2023/02/12 06:56:12;;;;;;;3.17;2.40;;;;;;;5.14;100.00;103975.50;5115691;28;20038;-74
2023/02/12 06:58:40;;;;;;;5.70;3.28;;;;;;;5.17;100.00;103979.88;5115141;28;20035;-74
2023/02/12 07:01:12;;;;;;;5.63;2.95;;;;;;;5.19;100.00;103988.63;5115467;28;20076;-74
2023/02/12 07:03:38;;;;;;;4.90;2.72;;;;;;;5.18;100.00;103985.13;5115101;28;20387;-73
2023/02/12 07:06:04;;;;;;;3.00;2.70;;;;;;;5.21;100.00;103992.09;5115713;28;20039;-73
2023/02/12 07:08:29;;;;;;;5.22;2.65;;;;;;;5.25;100.00;103997.28;5118438;28;20083;-73
2023/02/12 07:10:55;;;;;;;8.07;3.05;;;;;;;5.30;100.00;103995.47;5115345;28;20023;-73
2023/02/12 07:13:20;;;;;;;7.78;3.15;;;;;;;5.36;100.00;103997.13;5114815;28;20123;-73
2023/02/12 07:15:46;;;;;;;4.68;3.20;;;;;;;5.47;100.00;103996.91;5115166;28;20081;-74
2023/02/12 07:18:11;;;;;;;4.95;3.38;;;;;;;5.55;100.00;104007.34;5113706;28;20085;-74
2023/02/12 07:20:36;;;;;;;4.30;3.53;;;;;;;5.58;100.00;104010.81;5115122;28;20063;-73
2023/02/12 07:23:02;;;;;;;9.02;3.90;;;;;;;5.64;100.00;104015.97;5114871;28;20036;-74
2023/02/12 07:25:27;;;;;;;4.85;3.60;;;;;;;5.69;100.00;104018.53;5113877;28;20059;-73
2023/02/12 07:27:53;;;;;;;7.03;3.92;;;;;;;5.73;100.00;104024.59;5114783;28;20031;-73
2023/02/12 07:30:18;;;;;;;7.18;4.03;;;;;;;5.74;100.00;104021.94;5115201;28;20052;-73
2023/02/12 07:32:44;;;;;;;5.68;4.53;;;;;;;5.74;100.00;104024.56;5114888;28;20110;-74
2023/02/12 07:35:09;;;;;;;8.80;4.40;;;;;;;5.75;100.00;104026.31;5114439;28;20053;-73
2023/02/12 07:37:35;;;;;;;6.90;4.63;;;;;;;5.79;100.00;104025.38;5114866;28;20061;-73
2023/02/12 07:40:00;;;;;;;6.55;4.60;;;;;;;5.83;100.00;104034.97;5113283;28;20032;-73
2023/02/12 07:42:26;;;;;;;7.30;4.43;;;;;;;5.88;100.00;104029.63;5114156;28;20047;-73
2023/02/12 07:44:51;;;;;;;11.70;4.80;;;;;;;5.89;100.00;104031.34;5114080;28;20031;-73
2023/02/12 07:47:16;;;;;;;5.47;4.38;;;;;;;5.87;100.00;104041.06;5114358;28;20034;-73
2023/02/12 07:49:42;;;;;;;12.88;4.80;;;;;;;5.85;100.00;104037.56;5114307;28;20110;-74
2023/02/12 07:52:07;;;;;;;7.28;4.78;;;;;;;5.82;100.00;104043.81;5114516;28;20063;-73
2023/02/12 07:54:33;;;;;;;6.47;5.25;;;;;;;5.79;100.00;104030.66;5113147;28;20032;-74
2023/02/12 07:56:59;;;;;;;8.70;5.10;;;;;;;5.78;100.00;104041.25;5114702;28;20080;-74
2023/02/12 07:59:25;;;;;;;8.32;4.95;;;;;;;5.76;100.00;104037.75;5114519;28;20444;-75
2023/02/12 08:01:51;;;;;;;7.45;4.68;;;;;;;5.73;100.00;104044.00;5113743;28;20044;-76
2023/02/12 08:04:20;;;;;;;7.75;4.60;;;;;;;5.73;100.00;104043.09;5113828;28;20471;-74
2023/02/12 08:06:47;;;;;;;7.93;4.63;;;;;;;5.72;100.00;104039.59;5113506;28;20028;-75
2023/02/12 08:09:16;;;;;;;6.53;4.53;;;;;;;5.72;100.00;104047.53;5114130;28;20376;-75
2023/02/12 08:11:42;;;;;;;10.32;4.53;;;;;;;5.72;100.00;104036.94;5114043;28;20080;-77
2023/02/12 08:14:10;;;;;;;14.95;4.80;;;;;;;5.73;100.00;104044.00;5114331;28;20051;-75
2023/02/12 08:16:38;;;;;;;8.63;5.60;;;;;;;5.74;100.00;104045.72;5113916;28;20051;-76
2023/02/12 08:19:04;;;;;;;16.60;7.30;;;;;;;5.76;100.00;104045.69;5114055;28;20097;-76
2023/02/12 08:21:29;;;;;;;8.55;5.50;;;;;;;5.76;100.00;104041.28;5114049;28;20046;-76
2023/02/12 08:23:56;;;;;;;8.27;4.95;;;;;;;5.80;100.00;104048.22;5114817;28;20035;-76
2023/02/12 08:26:24;;;;;;;7.95;4.60;;;;;;;5.85;100.00;104047.28;5114748;28;20498;-76
2023/02/12 08:28:56;;;;;;;13.10;8.15;;;;;;;5.89;100.00;104049.84;5126733;28;20027;-76
2023/02/12 08:31:24;;;;;;;10.40;6.50;;;;;;;5.92;100.00;104047.13;5117995;28;20324;-76
2023/02/12 08:33:51;;;;;;;12.07;5.85;;;;;;;5.99;100.00;104047.94;5114243;28;20110;-76
2023/02/12 08:36:20;;;;;;;8.20;5.63;;;;;;;6.03;100.00;104048.72;5113564;28;20024;-75
2023/02/12 08:38:46;;;;;;;7.10;4.93;;;;;;;6.07;100.00;104048.63;5113701;28;20031;-75
2023/02/12 08:41:14;;;;;;;6.95;4.65;;;;;;;6.10;100.00;104050.34;5114578;28;20082;-77
2023/02/12 08:43:41;;;;;;;6.80;4.60;;;;;;;6.13;100.00;104053.78;5113463;28;20437;-77
2023/02/12 08:46:15;;;;;;;9.15;5.05;;;;;;;6.15;100.00;104054.66;5113337;28;20036;-77
2023/02/12 08:48:41;;;;;;;9.10;5.60;;;;;;;6.20;100.00;104056.31;5113864;28;20047;-76
2023/02/12 08:51:10;;;;;;;11.63;4.80;;;;;;;6.24;100.00;104065.91;5112987;28;20416;-76
2023/02/12 08:53:37;;;;;;;10.55;5.60;;;;;;;6.25;100.00;104060.59;5113299;28;20026;-76
2023/02/12 08:56:04;;;;;;;9.63;5.82;;;;;;;6.29;100.00;104067.56;5112933;28;20105;-76
2023/02/12 08:58:29;;;;;;;8.52;5.47;;;;;;;6.32;100.00;104061.34;5112840;28;20487;-76
2023/02/12 09:00:55;;;;;;;11.70;5.65;;;;;;;6.37;100.00;104072.69;5113269;28;20040;-77
2023/02/12 09:03:21;;;;;;;8.68;6.07;;;;;;;6.41;100.00;104069.09;5113038;28;20435;-77
2023/02/12 09:05:46;;;;;;;10.80;7.90;;;;;;;6.47;100.00;104076.03;5113349;28;20027;-77
2023/02/12 09:08:11;;;;;;;11.60;7.90;;;;;;;6.49;100.00;104069.81;5095177;28;20483;-76
2023/02/12 09:10:41;;;;;;;14.40;8.25;;;;;;;6.55;100.00;104076.72;5112899;28;20096;-76
2023/02/12 09:13:08;;;;;;;16.48;8.57;;;;;;;6.60;100.00;104079.25;5111784;28;20032;-76
2023/02/12 09:15:44;;;;;;;12.88;7.97;;;;;;;6.65;100.00;104078.25;5113067;28;20086;-77
2023/02/12 09:18:11;;;;;;;13.25;7.97;;;;;;;6.71;100.00;104085.19;5114719;28;20063;-75
2023/02/12 09:20:40;;;;;;;10.38;7.93;;;;;;;6.71;100.00;104075.47;5117209;28;20063;-75
2023/02/12 09:23:06;;;;;;;11.85;8.15;;;;;;;6.73;100.00;104088.66;5116247;28;20363;-75
2023/02/12 09:25:33;;;;;;;15.75;8.02;;;;;;;6.73;100.00;104088.66;5116936;28;20084;-75
2023/02/12 09:28:03;;;;;;;12.30;7.78;;;;;;;6.72;100.00;104092.25;5117478;28;20028;-75
2023/02/12 09:30:28;;;;;;;14.70;7.82;;;;;;;6.75;100.00;104085.97;5116751;28;20122;-75
2023/02/12 09:32:55;;;;;;;11.05;7.53;;;;;;;6.78;100.00;104085.94;5116344;28;20114;-76
2023/02/12 09:35:21;;;;;;;12.38;7.65;;;;;;;6.80;100.00;104081.47;5116422;28;20503;-75
2023/02/12 09:37:46;;;;;;;12.00;7.40;;;;;;;6.87;100.00;104085.72;5117078;28;20031;-77
2023/02/12 09:40:31;;;;;;;9.82;7.07;;;;;;;6.92;100.00;104082.97;5116557;28;20055;-77
2023/02/12 09:42:56;;;;;;;12.45;7.50;;;;;;;6.95;100.00;104083.75;5116741;28;20487;-77
2023/02/12 09:45:27;;;;;;;10.68;7.03;;;;;;;7.00;100.00;104086.28;5116282;28;20059;-78
2023/02/12 09:47:52;;;;;;;11.95;6.85;;;;;;;7.02;100.00;104088.00;5117049;28;20452;-78
2023/02/12 09:50:51;;;;;;;11.02;6.75;;;;;;;7.04;100.00;104078.25;5116362;28;20035;-78
2023/02/12 09:53:20;;;;;;;9.52;7.00;;;;;;;7.10;100.00;104077.22;5115923;28;20100;-78
2023/02/12 09:55:46;;;;;;;13.35;6.72;;;;;;;7.15;100.00;104078.00;5116660;28;20073;-78
2023/02/12 09:58:18;;;;;;;11.15;6.53;;;;;;;7.20;100.00;104078.75;5116959;28;20107;-78
2023/02/12 10:00:44;;;;;;;9.50;6.22;;;;;;;7.24;100.00;104079.56;5116573;28;20490;-77
2023/02/12 10:03:15;;;;;;;7.28;6.15;;;;;;;7.26;100.00;104077.72;5098222;28;20036;-78
2023/02/12 10:05:46;;;;;;;9.95;5.60;;;;;;;7.29;100.00;104075.00;5116712;28;20031;-79
2023/02/12 10:08:35;;;;;;;13.90;6.38;;;;;;;7.35;100.00;104084.56;5116176;28;20460;-78
2023/02/12 10:11:02;;;;;;;9.63;6.07;;;;;;;7.41;100.00;104082.63;5116399;28;20024;-79
2023/02/12 10:13:40;;;;;;;7.35;5.68;;;;;;;7.42;100.00;104078.22;5116273;28;20054;-76
2023/02/12 10:16:16;;;;;;;10.63;6.45;;;;;;;7.43;100.00;104072.00;5115470;28;20035;-79
2023/02/12 10:18:50;;;;;;;11.90;6.40;;;;;;;7.46;100.00;104074.56;5115996;28;20429;-78
2023/02/12 10:21:42;;;;;;;9.13;6.60;;;;;;;7.47;100.00;104081.59;5116008;28;20104;-74
2023/02/12 10:24:48;;;;;;;9.55;6.13;;;;;;;7.51;100.00;104080.63;5116187;28;20035;-76
2023/02/12 10:27:16;;;;;;;11.70;6.38;;;;;;;7.53;100.00;104077.94;5052852;28;20052;-74
2023/02/12 10:29:44;;;;;;;9.52;5.78;;;;;;;7.53;100.00;104070.00;5105876;28;20040;-75
2023/02/12 10:32:21;;;;;;;11.07;7.25;;;;;;;7.56;100.00;104070.75;5115715;28;20020;-75
2023/02/12 10:34:48;;;;;;;14.65;6.65;;;;;;;7.58;100.00;104081.31;5116069;28;20027;-75
2023/02/12 10:37:54;;;;;;;9.60;5.88;;;;;;;7.58;100.00;104081.31;5115812;28;20046;-72
2023/02/12 10:40:25;;;;;;;7.80;5.70;;;;;;;7.62;100.00;104079.47;5114397;28;20076;-74
2023/02/12 10:42:52;;;;;;;8.60;6.28;;;;;;;7.64;100.00;104082.94;5116001;28;20024;-75
2023/02/12 10:45:25;;;;;;;8.43;6.15;;;;;;;7.72;100.00;104080.97;5116140;28;20031;-77
2023/02/12 10:48:00;;;;;;;9.93;6.63;;;;;;;7.73;100.00;104080.94;5116536;28;20035;-76
2023/02/12 10:51:07;;;;;;;9.85;6.10;;;;;;;7.72;100.00;104087.13;5115559;28;20027;-75
2023/02/12 10:53:38;;;;;;;9.00;6.20;;;;;;;7.71;100.00;104085.38;5115394;28;20030;-76
2023/02/12 10:56:11;;;;;;;8.93;5.95;;;;;;;7.77;100.00;104082.56;5115812;28;20032;-76
2023/02/12 10:58:52;;;;;;;9.00;6.30;;;;;;;7.82;100.00;104081.59;5115745;28;20480;-76
2023/02/12 11:01:24;;;;;;;7.68;6.25;;;;;;;7.82;100.00;104082.44;5115760;28;20123;-77
2023/02/12 11:03:50;;;;;;;11.85;6.90;;;;;;;7.84;100.00;104078.00;5115471;28;20034;-75
2023/02/12 11:06:19;;;;;;;12.80;7.40;;;;;;;7.87;100.00;104077.03;5116017;28;20085;-74
2023/02/12 11:08:45;;;;;;;10.13;7.63;;;;;;;7.90;100.00;104075.16;5115283;28;20059;-76
2023/02/12 11:11:15;;;;;;;13.60;8.35;;;;;;;7.95;100.00;104077.69;5115269;28;20062;-75
2023/02/12 11:13:52;;;;;;;12.25;8.40;;;;;;;7.99;100.00;104075.84;5113968;28;20426;-78
2023/02/12 11:16:33;;;;;;;12.32;8.48;;;;;;;8.07;100.00;104079.13;5115143;28;20143;-78
2023/02/12 11:19:20;;;;;;;14.68;8.30;;;;;;;8.09;100.00;104074.63;5114861;28;20038;-77
2023/02/12 11:21:46;;;;;;;15.25;8.48;;;;;;;8.11;100.00;104081.66;5115178;28;20479;-78
2023/02/12 11:24:35;;;;;;;12.95;8.60;;;;;;;8.09;100.00;104077.28;5115455;28;20032;-78
2023/02/12 11:27:19;;;;;;;14.60;8.63;;;;;;;8.12;100.00;104074.53;5115131;28;20020;-79
2023/02/12 11:29:50;;;;;;;13.75;8.57;;;;;;;8.10;100.00;104076.38;5115293;28;20067;-77
2023/02/12 11:32:18;;;;;;;13.32;8.70;;;;;;;8.11;100.00;104070.19;5114999;28;20027;-77
2023/02/12 11:34:43;;;;;;;13.45;9.57;;;;;;;8.12;100.00;104066.59;5114304;28;20028;-77
2023/02/12 11:37:27;;;;;;;14.50;9.25;;;;;;;8.13;100.00;104068.34;5114446;28;20114;-77
2023/02/12 11:39:53;;;;;;;13.45;9.30;;;;;;;8.10;100.00;104066.63;5115193;28;20441;-76